Higgins, Texas
Current Conditions -  °F | °C
As of 2:53 PM on Tuesday 25 Nov 2014 (Local Time) from KGAG Reporting Station
Clear Clear  
Wind Chill: 55°   Ceiling: Unl
Heat Index: 55°   Visibility: 10mi
Dew Point: 13°   Wind: 18mph
Humidity: 19%   Direction: 250°WSW
Pressure: 30.05"   Gusts: 26mph
Location:  36.12°N, 100.02°W
Report Text: KGAG 252053Z AUTO 25016G23KT 10SM CLR 13/M11 A3005 RMK AO2 SLP177 T01281106 56046
Loading
Personal Weather Stations






























Interactive Weather Map New forecast layout! Learn more

10-Day Weather Forecast

Advertisements
Track Severe Weather on mobile